Time;durP1;ratioP1;P1;durP2;ratioP2;P2;SDS_P1;SDS_P2;PMS_P1;PMS_P2;Temp;Humidity;BMP_temperature;BMP_pressure;BME280_temperature;BME280_humidity;BME280_pressure;Samples;Min_cycle;Max_cycle;Signal;HPM_P1;HPM_P2
2021/06/21 00:00:57;;;;;;;6.40;3.13;;;23.70;93.00;;;;;;5031685;28;20083;-76
2021/06/21 00:03:22;;;;;;;6.68;2.97;;;23.70;93.00;;;;;;5031765;28;20025;-76
2021/06/21 00:05:48;;;;;;;4.82;2.65;;;23.70;93.10;;;;;;5033025;28;20490;-75
2021/06/21 00:08:15;;;;;;;6.40;3.33;;;23.70;93.00;;;;;;5031324;28;20515;-75
2021/06/21 00:10:41;;;;;;;8.70;3.47;;;23.70;93.10;;;;;;5031435;28;20050;-76
2021/06/21 00:13:07;;;;;;;4.82;2.70;;;23.60;93.20;;;;;;5014058;28;20509;-75
2021/06/21 00:15:32;;;;;;;5.88;3.10;;;23.60;93.30;;;;;;5031267;28;20069;-75
2021/06/21 00:17:58;;;;;;;3.72;2.67;;;23.50;93.20;;;;;;5032733;28;20028;-75
2021/06/21 00:20:25;;;;;;;6.50;2.90;;;23.50;93.50;;;;;;5013376;28;20025;-75
2021/06/21 00:22:52;;;;;;;5.38;2.40;;;23.40;93.50;;;;;;5031465;28;20048;-76
2021/06/21 00:25:20;;;;;;;3.97;2.40;;;23.50;93.60;;;;;;5031568;28;20029;-75
2021/06/21 00:27:46;;;;;;;6.75;3.00;;;23.40;93.70;;;;;;5031018;28;20337;-76
2021/06/21 00:30:15;;;;;;;4.32;2.83;;;23.50;93.70;;;;;;5031213;28;20084;-77
2021/06/21 00:32:42;;;;;;;6.03;3.25;;;23.50;93.90;;;;;;5032393;28;20017;-76
2021/06/21 00:35:09;;;;;;;5.88;2.83;;;23.50;94.90;;;;;;5030422;28;20038;-76
2021/06/21 00:37:35;;;;;;;5.78;2.90;;;23.50;95.40;;;;;;5013078;28;20029;-76
2021/06/21 00:40:01;;;;;;;9.02;3.20;;;23.30;95.90;;;;;;5030693;28;20472;-78
2021/06/21 00:42:27;;;;;;;9.13;3.40;;;23.40;96.60;;;;;;5031003;28;20048;-77
2021/06/21 00:44:52;;;;;;;10.32;3.50;;;23.40;96.60;;;;;;5032370;28;20021;-78
2021/06/21 00:47:18;;;;;;;7.72;3.05;;;23.40;97.20;;;;;;5030452;28;20115;-77
2021/06/21 00:49:44;;;;;;;6.63;3.25;;;23.30;97.40;;;;;;5030514;28;20387;-76
2021/06/21 00:52:15;;;;;;;7.75;3.15;;;23.30;97.50;;;;;;5030601;28;20041;-77
2021/06/21 00:54:40;;;;;;;6.07;2.85;;;23.20;97.70;;;;;;5030988;28;20086;-76
2021/06/21 00:57:06;;;;;;;6.15;3.10;;;23.30;97.80;;;;;;5013109;28;20034;-77
2021/06/21 00:59:32;;;;;;;4.63;2.60;;;23.20;97.50;;;;;;5032226;28;20029;-77
2021/06/21 01:01:58;;;;;;;10.43;3.40;;;23.20;98.20;;;;;;5013090;28;20038;-77
2021/06/21 01:04:24;;;;;;;8.82;3.08;;;23.20;98.70;;;;;;5029851;28;20038;-77
2021/06/21 01:06:49;;;;;;;5.88;2.90;;;23.20;98.50;;;;;;5030606;28;20490;-79
2021/06/21 01:09:15;;;;;;;6.15;3.30;;;23.10;98.60;;;;;;5030292;28;20028;-77
2021/06/21 01:11:57;;;;;;;13.13;3.40;;;23.10;98.90;;;;;;5032555;28;20052;-78
2021/06/21 01:14:27;;;;;;;8.60;3.67;;;23.00;99.00;;;;;;5030461;28;20048;-77
2021/06/21 01:17:13;;;;;;;7.07;3.40;;;23.00;99.70;;;;;;5030030;28;20037;-77
2021/06/21 01:20:14;;;;;;;7.82;3.00;;;22.90;99.60;;;;;;5012671;28;20087;-79
2021/06/21 01:23:22;;;;;;;4.45;2.78;;;22.90;99.20;;;;;;5018896;28;20063;-79
2021/06/21 01:26:04;;;;;;;8.18;3.50;;;22.80;99.50;;;;;;4998927;28;20041;-78
2021/06/21 01:29:07;;;;;;;10.57;4.00;;;22.80;99.80;;;;;;5029915;28;20049;-79
2021/06/21 01:31:55;;;;;;;6.90;3.90;;;22.70;99.80;;;;;;5012162;28;20041;-79
2021/06/21 01:34:25;;;;;;;7.78;3.85;;;22.70;99.90;;;;;;5029794;28;20067;-79
2021/06/21 01:36:54;;;;;;;7.18;3.63;;;22.60;99.70;;;;;;5030079;28;20041;-79
2021/06/21 01:39:20;;;;;;;8.57;3.70;;;22.60;99.90;;;;;;5012124;28;20025;-78
2021/06/21 01:41:48;;;;;;;11.13;3.95;;;22.50;99.90;;;;;;5031315;28;20083;-77
2021/06/21 01:44:18;;;;;;;11.18;4.10;;;22.50;99.90;;;;;;5011878;28;20045;-77
2021/06/21 01:46:50;;;;;;;11.60;4.38;;;22.50;99.90;;;;;;5029716;28;20033;-77
2021/06/21 01:49:21;;;;;;;10.35;4.00;;;22.40;99.90;;;;;;5029817;28;20037;-76
2021/06/21 01:51:48;;;;;;;6.22;4.05;;;22.40;99.90;;;;;;5011972;28;20432;-77
2021/06/21 01:54:15;;;;;;;9.88;4.63;;;22.40;99.90;;;;;;5012243;28;20021;-78
2021/06/21 01:56:45;;;;;;;13.40;5.20;;;22.30;99.90;;;;;;5013750;28;20473;-78
2021/06/21 01:59:13;;;;;;;7.93;4.78;;;22.30;99.90;;;;;;5011697;28;20187;-77
2021/06/21 02:01:42;;;;;;;9.52;4.82;;;22.30;99.90;;;;;;5029540;28;20049;-77
2021/06/21 02:04:08;;;;;;;13.18;4.75;;;22.40;99.90;;;;;;5029481;28;20068;-78
2021/06/21 02:06:35;;;;;;;11.25;4.90;;;22.40;99.90;;;;;;5029705;28;20038;-78
2021/06/21 02:09:06;;;;;;;8.20;4.80;;;22.40;99.90;;;;;;5031425;28;20448;-78
2021/06/21 02:11:32;;;;;;;9.82;4.57;;;22.20;99.90;;;;;;5029785;28;20041;-77
2021/06/21 02:14:01;;;;;;;11.57;4.68;;;22.30;99.90;;;;;;5011854;28;20037;-77
2021/06/21 02:16:27;;;;;;;12.55;5.18;;;22.30;99.90;;;;;;5029349;28;20041;-77
2021/06/21 02:18:53;;;;;;;12.13;5.25;;;22.30;99.90;;;;;;5029448;28;20113;-77
2021/06/21 02:21:20;;;;;;;8.70;4.32;;;22.20;99.90;;;;;;5029169;28;20143;-76
2021/06/21 02:23:48;;;;;;;11.88;4.40;;;22.20;99.90;;;;;;5031577;28;20032;-77
2021/06/21 02:26:15;;;;;;;13.43;4.82;;;22.10;99.90;;;;;;5011930;28;20029;-77
2021/06/21 02:28:41;;;;;;;10.38;4.95;;;22.10;99.90;;;;;;5029318;28;20522;-79
2021/06/21 02:31:08;;;;;;;10.32;4.28;;;22.10;99.90;;;;;;5029508;28;20788;-78
2021/06/21 02:33:35;;;;;;;12.05;5.20;;;22.00;99.90;;;;;;5029545;28;20038;-78
2021/06/21 02:36:01;;;;;;;9.57;4.60;;;22.00;99.90;;;;;;5032193;28;20029;-79
2021/06/21 02:38:27;;;;;;;10.65;4.78;;;22.00;99.90;;;;;;5029589;28;20055;-78
2021/06/21 02:40:52;;;;;;;8.18;4.38;;;22.10;99.90;;;;;;5011977;28;20049;-77
2021/06/21 02:43:18;;;;;;;10.13;5.40;;;22.00;99.90;;;;;;5012781;28;20045;-78
2021/06/21 02:45:44;;;;;;;10.98;4.75;;;22.00;99.90;;;;;;5032806;28;20037;-76
2021/06/21 02:48:11;;;;;;;6.65;4.45;;;22.00;99.90;;;;;;5032782;28;20033;-76
2021/06/21 02:50:41;;;;;;;7.70;4.17;;;21.90;99.90;;;;;;5034361;28;20030;-77
2021/06/21 02:53:28;;;;;;;11.27;5.35;;;21.90;99.90;;;;;;5032478;28;20049;-76
2021/06/21 02:56:17;;;;;;;8.35;4.80;;;22.00;99.90;;;;;;5015671;28;20095;-77
2021/06/21 02:58:45;;;;;;;9.88;5.15;;;22.00;99.90;;;;;;5015564;28;20045;-76
2021/06/21 03:01:14;;;;;;;9.50;4.75;;;22.00;99.90;;;;;;5014864;28;20041;-76
2021/06/21 03:03:45;;;;;;;11.80;5.68;;;22.00;99.90;;;;;;5032671;28;20037;-77
2021/06/21 03:06:11;;;;;;;7.85;5.35;;;21.90;99.90;;;;;;5032696;28;20470;-78
2021/06/21 03:08:38;;;;;;;10.55;5.35;;;21.90;99.90;;;;;;5034079;28;20033;-77
2021/06/21 03:11:06;;;;;;;11.10;5.07;;;21.90;99.90;;;;;;5032278;28;20084;-77
2021/06/21 03:13:32;;;;;;;8.07;4.57;;;21.90;99.90;;;;;;5033143;28;20168;-77
2021/06/21 03:15:59;;;;;;;11.30;5.57;;;21.90;99.90;;;;;;5015018;28;20096;-77
2021/06/21 03:18:25;;;;;;;10.43;4.70;;;22.00;99.90;;;;;;5015027;28;20437;-77
2021/06/21 03:20:56;;;;;;;7.32;4.43;;;22.00;99.90;;;;;;5034046;28;20025;-77
2021/06/21 03:23:24;;;;;;;8.10;4.90;;;22.00;99.90;;;;;;5031979;28;20356;-78
2021/06/21 03:26:02;;;;;;;10.45;5.55;;;21.90;99.90;;;;;;5032257;28;20103;-77
2021/06/21 03:28:32;;;;;;;8.55;4.97;;;21.90;99.90;;;;;;5014402;28;20114;-76
2021/06/21 03:31:07;;;;;;;10.50;5.07;;;21.90;99.90;;;;;;5031920;28;20025;-76
2021/06/21 03:33:34;;;;;;;6.88;4.60;;;21.90;99.90;;;;;;5014879;28;20044;-76
2021/06/21 03:36:00;;;;;;;11.88;5.45;;;21.90;99.90;;;;;;5015914;28;20038;-77
2021/06/21 03:38:28;;;;;;;7.32;5.18;;;21.90;99.90;;;;;;5032166;28;20051;-76
2021/06/21 03:41:00;;;;;;;;;;;21.80;99.90;;;;;;5032289;28;20577;-79
2021/06/21 03:43:28;;;;;;;7.72;4.55;;;21.80;99.90;;;;;;5031728;28;19921;-76
2021/06/21 03:45:56;;;;;;;6.65;5.10;;;21.70;99.90;;;;;;5031725;28;20041;-78
2021/06/21 03:48:22;;;;;;;;;;;21.70;99.90;;;;;;5032385;28;20120;-77
2021/06/21 03:50:47;;;;;;;7.13;5.38;;;21.70;99.90;;;;;;5034105;28;19905;-75
2021/06/21 03:53:14;;;;;;;7.20;4.68;;;21.70;99.90;;;;;;5031821;28;20064;-75
2021/06/21 03:55:40;;;;;;;5.87;4.83;;;21.70;99.90;;;;;;5030507;28;20624;-76
2021/06/21 03:58:07;;;;;;;9.43;5.28;;;21.70;99.90;;;;;;5031889;28;20266;-76
2021/06/21 04:00:34;;;;;;;8.27;5.65;;;21.80;99.90;;;;;;5031738;28;20037;-77
2021/06/21 04:03:01;;;;;;;7.50;4.85;;;21.80;99.90;;;;;;5033490;28;20032;-78
2021/06/21 04:05:27;;;;;;;7.57;5.37;;;21.70;99.90;;;;;;5031791;28;20044;-78
2021/06/21 04:07:54;;;;;;;7.70;4.70;;;21.80;99.90;;;;;;5031678;28;20022;-77
2021/06/21 04:10:22;;;;;;;6.90;4.70;;;21.70;99.90;;;;;;5030908;28;20037;-76
2021/06/21 04:12:50;;;;;;;8.45;4.70;;;21.70;99.90;;;;;;5031138;28;20399;-77
2021/06/21 04:15:18;;;;;;;7.55;4.90;;;21.70;99.90;;;;;;5013774;28;20017;-77
2021/06/21 04:17:44;;;;;;;8.40;5.35;;;21.70;99.90;;;;;;5033075;28;20325;-76
2021/06/21 04:20:12;;;;;;;6.78;4.40;;;21.70;99.90;;;;;;5031390;28;20052;-76
2021/06/21 04:22:38;;;;;;;8.18;4.50;;;21.80;99.90;;;;;;5031070;28;20089;-75
2021/06/21 04:25:07;;;;;;;6.43;4.38;;;21.80;99.90;;;;;;5031437;28;20042;-76
2021/06/21 04:27:33;;;;;;;4.50;4.10;;;21.80;99.90;;;;;;5013195;28;20140;-78
2021/06/21 04:29:58;;;;;;;7.05;4.43;;;21.80;99.90;;;;;;5015249;28;20120;-77
2021/06/21 04:32:24;;;;;;;6.10;3.92;;;21.70;99.90;;;;;;5031297;28;20037;-78
2021/06/21 04:34:49;;;;;;;5.05;4.15;;;21.70;99.90;;;;;;5013477;28;20048;-76
2021/06/21 04:37:15;;;;;;;8.15;3.90;;;21.70;99.90;;;;;;5031671;28;20045;-76
2021/06/21 04:39:41;;;;;;;5.95;4.20;;;21.80;99.90;;;;;;5031317;28;20642;-76
2021/06/21 04:42:06;;;;;;;4.25;3.50;;;21.70;99.90;;;;;;5031029;28;20029;-77
2021/06/21 04:44:32;;;;;;;5.20;3.65;;;21.70;99.90;;;;;;5032852;28;20048;-76
2021/06/21 04:46:58;;;;;;;3.70;3.40;;;21.70;99.90;;;;;;5030745;28;20033;-76
2021/06/21 04:49:23;;;;;;;6.72;3.00;;;21.70;99.90;;;;;;5030148;28;20036;-76
2021/06/21 04:51:51;;;;;;;5.30;3.17;;;21.70;99.90;;;;;;5030273;28;20394;-76
2021/06/21 04:54:16;;;;;;;7.28;3.60;;;21.70;99.90;;;;;;5031066;28;20033;-75
2021/06/21 04:56:42;;;;;;;5.32;3.17;;;21.70;99.90;;;;;;5031938;28;20025;-79
2021/06/21 04:59:08;;;;;;;7.40;3.17;;;21.60;99.90;;;;;;5030475;28;20451;-78
2021/06/21 05:01:34;;;;;;;5.45;3.08;;;21.60;99.90;;;;;;5030532;28;20025;-77
2021/06/21 05:04:00;;;;;;;3.75;2.72;;;21.60;99.90;;;;;;5030611;28;20049;-75
2021/06/21 05:06:27;;;;;;;3.58;2.97;;;21.60;99.90;;;;;;5030614;28;20214;-76
2021/06/21 05:08:53;;;;;;;4.45;2.55;;;21.60;99.90;;;;;;5031860;28;20096;-77
2021/06/21 05:11:19;;;;;;;3.00;2.30;;;21.60;99.90;;;;;;5029725;28;20087;-77
2021/06/21 05:13:45;;;;;;;3.17;2.45;;;21.60;99.90;;;;;;5012776;28;20406;-76
2021/06/21 05:16:11;;;;;;;4.13;2.20;;;21.60;99.90;;;;;;5029737;28;20073;-77
2021/06/21 05:18:37;;;;;;;3.40;2.42;;;21.60;99.90;;;;;;5030269;28;20029;-78
2021/06/21 05:21:04;;;;;;;3.53;2.47;;;21.50;99.90;;;;;;5030221;28;20459;-77
2021/06/21 05:23:29;;;;;;;4.20;2.70;;;21.50;99.90;;;;;;5031732;28;20022;-75
2021/06/21 05:25:55;;;;;;;3.13;2.72;;;21.60;99.90;;;;;;5012231;28;20029;-76
2021/06/21 05:28:21;;;;;;;4.10;2.45;;;21.60;99.90;;;;;;5012329;28;20053;-75
2021/06/21 05:30:47;;;;;;;3.65;2.22;;;21.50;99.90;;;;;;5029804;28;20041;-78
2021/06/21 05:33:14;;;;;;;2.35;2.00;;;21.60;99.90;;;;;;5029970;28;20116;-77
2021/06/21 05:35:40;;;;;;;3.67;2.20;;;21.60;99.90;;;;;;5031251;28;20022;-78
2021/06/21 05:38:06;;;;;;;4.57;2.42;;;21.60;99.90;;;;;;5029838;28;20040;-79
2021/06/21 05:40:31;;;;;;;4.55;2.22;;;21.60;99.90;;;;;;5029327;28;20096;-79
2021/06/21 05:42:57;;;;;;;2.28;2.08;;;21.60;99.90;;;;;;5012121;28;20466;-80
2021/06/21 05:45:23;;;;;;;4.68;2.28;;;21.60;99.90;;;;;;5012367;28;20053;-77
2021/06/21 05:47:48;;;;;;;4.93;2.10;;;21.60;99.90;;;;;;5031351;28;20108;-79
2021/06/21 05:50:14;;;;;;;30.67;17.60;;;21.60;99.90;;;;;;5011816;28;20053;-77
2021/06/21 05:52:40;;;;;;;5.43;3.40;;;21.60;99.90;;;;;;5029455;28;20413;-76
2021/06/21 05:55:07;;;;;;;3.63;2.70;;;21.50;99.90;;;;;;5030060;28;20486;-76
2021/06/21 05:57:33;;;;;;;3.67;2.40;;;21.50;99.90;;;;;;5012280;28;20073;-77
2021/06/21 05:59:58;;;;;;;4.63;2.28;;;21.50;99.90;;;;;;5031253;28;20036;-78
2021/06/21 06:02:25;;;;;;;3.92;2.25;;;21.40;99.90;;;;;;5012174;28;20034;-75
2021/06/21 06:04:51;;;;;;;3.97;2.10;;;21.50;99.90;;;;;;5011935;28;20037;-77
2021/06/21 06:07:17;;;;;;;2.65;2.10;;;21.40;99.90;;;;;;5013126;28;20379;-84
2021/06/21 06:09:44;;;;;;;2.55;1.98;;;21.50;99.90;;;;;;5033484;28;20060;-83
2021/06/21 06:12:11;;;;;;;4.28;2.33;;;21.50;99.90;;;;;;5032492;28;20049;-81
2021/06/21 06:14:36;;;;;;;2.70;1.67;;;21.50;99.90;;;;;;5033694;28;20709;-80
2021/06/21 06:17:03;;;;;;;3.15;1.30;;;21.50;99.90;;;;;;5031960;28;20050;-79
2021/06/21 06:19:28;;;;;;;4.35;2.58;;;21.50;99.90;;;;;;5034649;28;20427;-78
2021/06/21 06:21:54;;;;;;;20.85;13.85;;;21.50;99.90;;;;;;5035519;28;20506;-77
2021/06/21 06:24:20;;;;;;;4.05;2.88;;;21.60;99.90;;;;;;5035555;28;20090;-78
2021/06/21 06:26:46;;;;;;;4.57;2.28;;;21.60;99.90;;;;;;5037051;28;20040;-78
2021/06/21 06:29:14;;;;;;;5.13;2.35;;;21.70;99.90;;;;;;5035032;28;20057;-79
2021/06/21 06:31:44;;;;;;;2.58;2.10;;;21.60;99.90;;;;;;5035425;28;20045;-80
2021/06/21 06:34:10;;;;;;;3.55;2.55;;;21.70;99.90;;;;;;5017318;28;20084;-78
2021/06/21 06:36:35;;;;;;;25.27;16.02;;;21.60;99.90;;;;;;5018117;28;20045;-78
2021/06/21 06:39:01;;;;;;;3.50;2.97;;;21.70;99.90;;;;;;5034496;28;20036;-75
2021/06/21 06:41:27;;;;;;;4.03;2.92;;;21.70;99.90;;;;;;5034769;28;20107;-76
2021/06/21 06:43:54;;;;;;;3.97;2.70;;;21.70;99.90;;;;;;5015867;28;20037;-77
2021/06/21 06:46:20;;;;;;;3.97;2.60;;;21.80;99.90;;;;;;5033116;28;20042;-77
2021/06/21 06:48:45;;;;;;;2.95;2.45;;;21.70;99.90;;;;;;5033526;28;20598;-78
2021/06/21 06:51:11;;;;;;;2.92;2.22;;;21.70;99.90;;;;;;5033083;28;20358;-77
2021/06/21 06:53:42;;;;;;;6.18;2.58;;;21.70;99.90;;;;;;5035024;28;20032;-75
2021/06/21 06:58:52;;;;;;;4.30;2.42;;;21.60;99.90;;;;;;5033528;28;20497;-75
2021/06/21 07:01:18;;;;;;;12.20;7.55;;;21.60;99.90;;;;;;5033250;28;20041;-76
2021/06/21 07:03:43;;;;;;;7.57;4.75;;;21.60;99.90;;;;;;5032947;28;20026;-75
2021/06/21 07:06:11;;;;;;;6.82;2.30;;;21.70;99.90;;;;;;5032291;28;20026;-77
2021/06/21 07:08:36;;;;;;;3.13;2.47;;;21.70;99.90;;;;;;5035161;28;20037;-77
2021/06/21 07:11:02;;;;;;;6.20;2.70;;;21.70;99.90;;;;;;5015656;28;20057;-77
2021/06/21 07:13:28;;;;;;;3.60;2.75;;;21.70;99.90;;;;;;5015100;28;20064;-76
2021/06/21 07:15:53;;;;;;;4.80;2.45;;;21.70;99.90;;;;;;5032122;28;20587;-76
2021/06/21 07:18:19;;;;;;;5.13;3.30;;;21.70;99.90;;;;;;5032093;28;20029;-78
2021/06/21 07:20:44;;;;;;;13.90;9.02;;;21.60;99.90;;;;;;5016637;28;20017;-76
2021/06/21 07:23:10;;;;;;;3.60;2.35;;;21.60;99.90;;;;;;5032478;28;20051;-77
2021/06/21 07:25:36;;;;;;;4.18;2.30;;;21.60;99.90;;;;;;5032092;28;20029;-77
2021/06/21 07:28:01;;;;;;;3.05;2.15;;;21.50;99.90;;;;;;5032226;28;20428;-79
2021/06/21 07:30:27;;;;;;;14.85;9.60;;;21.50;99.90;;;;;;5030726;28;20062;-77
2021/06/21 07:32:53;;;;;;;5.88;3.63;;;21.50;99.90;;;;;;5033721;28;20040;-77
2021/06/21 07:35:19;;;;;;;5.63;2.65;;;21.50;99.90;;;;;;5032036;28;20422;-77
2021/06/21 07:37:44;;;;;;;3.75;2.10;;;21.50;99.90;;;;;;5014181;28;20045;-76
2021/06/21 07:40:10;;;;;;;6.65;2.97;;;21.50;99.90;;;;;;5014696;28;20037;-78
2021/06/21 07:42:36;;;;;;;5.00;2.85;;;21.50;99.90;;;;;;5031919;28;20112;-79
2021/06/21 07:45:04;;;;;;;4.63;2.20;;;21.50;99.90;;;;;;5014512;28;20120;-78
2021/06/21 07:47:30;;;;;;;5.43;2.78;;;21.50;99.90;;;;;;5033561;28;20021;-76
2021/06/21 07:49:55;;;;;;;8.48;3.78;;;21.60;99.90;;;;;;5031555;28;20072;-77
2021/06/21 07:52:21;;;;;;;5.78;4.13;;;21.50;99.90;;;;;;5031853;28;20037;-76
2021/06/21 07:54:48;;;;;;;8.02;3.28;;;21.60;99.90;;;;;;5031306;28;20083;-77
2021/06/21 07:57:14;;;;;;;25.83;12.73;;;21.50;99.90;;;;;;5014051;28;20041;-75
2021/06/21 07:59:39;;;;;;;7.50;4.90;;;21.50;99.90;;;;;;5033413;28;20021;-76
2021/06/21 08:02:05;;;;;;;6.55;3.38;;;21.40;99.90;;;;;;5013803;28;20026;-76
2021/06/21 08:04:30;;;;;;;10.90;3.53;;;21.40;99.90;;;;;;5031624;28;20033;-76
2021/06/21 08:06:56;;;;;;;4.05;3.03;;;21.30;99.90;;;;;;5014051;28;20033;-77
2021/06/21 08:09:22;;;;;;;7.38;3.33;;;21.30;99.90;;;;;;5031209;28;20022;-78
2021/06/21 08:11:47;;;;;;;6.28;3.55;;;21.30;99.90;;;;;;5014693;28;20033;-77
2021/06/21 08:14:13;;;;;;;6.25;3.10;;;21.40;99.90;;;;;;5030728;28;20622;-76
2021/06/21 08:16:39;;;;;;;9.43;4.00;;;21.40;99.90;;;;;;5031155;28;20365;-75
2021/06/21 08:19:04;;;;;;;5.43;3.72;;;21.40;99.90;;;;;;5031048;28;20124;-76
2021/06/21 08:21:30;;;;;;;6.55;3.50;;;21.40;99.90;;;;;;5030594;28;20040;-76
2021/06/21 08:23:57;;;;;;;22.35;14.23;;;21.50;99.90;;;;;;5032836;28;20105;-76
2021/06/21 08:26:24;;;;;;;4.03;3.58;;;21.50;99.90;;;;;;5030883;28;20055;-77
2021/06/21 08:28:52;;;;;;;9.05;3.80;;;21.60;99.90;;;;;;5030585;28;20103;-75
2021/06/21 08:31:17;;;;;;;7.25;4.10;;;21.70;99.90;;;;;;5030768;28;20112;-77
2021/06/21 08:33:43;;;;;;;5.53;4.25;;;21.80;99.90;;;;;;5031002;28;20125;-78
2021/06/21 08:36:09;;;;;;;10.68;4.60;;;21.90;99.90;;;;;;5031263;28;20061;-77
2021/06/21 08:38:35;;;;;;;8.05;4.35;;;21.90;99.90;;;;;;5032465;28;20041;-78
2021/06/21 08:41:05;;;;;;;5.03;4.30;;;22.00;99.90;;;;;;5030386;28;20038;-77
2021/06/21 08:43:32;;;;;;;6.30;4.38;;;22.10;99.90;;;;;;5030689;28;20551;-79
2021/06/21 08:45:57;;;;;;;5.07;4.53;;;22.00;99.90;;;;;;5030429;28;20124;-76
2021/06/21 08:48:28;;;;;;;5.18;4.50;;;22.00;99.90;;;;;;5012443;28;20124;-79
2021/06/21 08:50:53;;;;;;;8.63;4.97;;;22.00;99.90;;;;;;5032249;28;20026;-74
2021/06/21 08:53:19;;;;;;;17.40;9.98;;;22.10;99.90;;;;;;5030144;28;20571;-78
2021/06/21 08:55:47;;;;;;;12.48;6.35;;;22.20;99.90;;;;;;5029754;28;20041;-84
2021/06/21 08:58:12;;;;;;;7.47;4.90;;;22.20;99.90;;;;;;5030426;28;20038;-81
2021/06/21 09:00:39;;;;;;;9.05;5.68;;;22.10;99.90;;;;;;5012512;28;20043;-81
2021/06/21 09:03:05;;;;;;;9.02;5.05;;;22.20;99.90;;;;;;5030189;28;20037;-81
2021/06/21 09:05:35;;;;;;;7.70;5.38;;;22.40;99.90;;;;;;5031925;28;20030;-81
2021/06/21 09:08:06;;;;;;;10.07;5.68;;;22.60;99.90;;;;;;5030308;28;20079;-82
2021/06/21 09:10:34;;;;;;;9.20;5.88;;;22.80;99.90;;;;;;5012199;28;20025;-80
2021/06/21 09:13:05;;;;;;;;;;;23.00;99.90;;;;;;5029894;28;20099;-81
2021/06/21 09:15:32;;;;;;;9.18;6.82;;;23.10;99.90;;;;;;5012437;28;19909;-80
2021/06/21 09:18:00;;;;;;;9.63;6.13;;;23.20;99.90;;;;;;5032007;28;20045;-81
2021/06/21 09:20:27;;;;;;;7.35;5.55;;;23.50;99.90;;;;;;5009953;28;20025;-79
2021/06/21 09:22:56;;;;;;;10.80;5.82;;;23.70;99.90;;;;;;5011847;28;20590;-80
2021/06/21 09:25:26;;;;;;;6.20;5.07;;;23.90;99.90;;;;;;5029899;28;20029;-79
2021/06/21 09:28:00;;;;;;;8.20;5.57;;;24.20;99.90;;;;;;5030146;28;20129;-78
2021/06/21 09:30:26;;;;;;;8.95;5.35;;;24.50;99.90;;;;;;5030036;28;20216;-80
2021/06/21 09:32:56;;;;;;;7.25;5.68;;;24.60;99.70;;;;;;5013375;28;20029;-78
2021/06/21 09:35:29;;;;;;;6.72;5.70;;;24.90;99.70;;;;;;5030016;28;20487;-79
2021/06/21 09:37:56;;;;;;;6.57;5.45;;;24.90;99.60;;;;;;5012257;28;20468;-78
2021/06/21 09:40:25;;;;;;;9.97;5.10;;;24.70;99.10;;;;;;5029797;28;20085;-79
2021/06/21 09:42:51;;;;;;;8.27;5.13;;;24.60;99.20;;;;;;5029752;28;20038;-79
2021/06/21 09:45:17;;;;;;;7.35;5.22;;;24.80;99.40;;;;;;5029611;28;20029;-80
2021/06/21 09:47:43;;;;;;;7.97;4.88;;;24.60;98.90;;;;;;5030806;28;20549;-79
2021/06/21 09:50:13;;;;;;;6.88;5.00;;;24.90;98.80;;;;;;5029684;28;20120;-78
2021/06/21 09:52:42;;;;;;;10.85;5.97;;;25.40;98.80;;;;;;5028981;28;20033;-79
2021/06/21 09:55:31;;;;;;;8.15;4.97;;;25.60;98.70;;;;;;5029597;28;20083;-79
2021/06/21 09:58:05;;;;;;;7.18;4.72;;;25.40;98.50;;;;;;5029553;28;20043;-80
2021/06/21 10:00:31;;;;;;;10.00;4.53;;;25.30;98.60;;;;;;5029761;28;20125;-79
2021/06/21 10:03:14;;;;;;;12.48;5.32;;;25.40;98.40;;;;;;5012915;28;20123;-77
2021/06/21 10:06:01;;;;;;;9.23;4.97;;;25.30;98.60;;;;;;5029588;28;20042;-77
2021/06/21 10:08:47;;;;;;;;;;;25.40;98.70;;;;;;5029869;28;20128;-78
2021/06/21 10:11:34;;;;;;;12.05;6.15;;;25.40;98.40;;;;;;5028907;28;19913;-78
2021/06/21 10:14:03;;;;;;;7.82;5.25;;;25.60;98.30;;;;;;5029237;28;20088;-77
2021/06/21 10:16:28;;;;;;;6.97;4.57;;;25.80;98.20;;;;;;5029335;28;20632;-75
2021/06/21 10:18:55;;;;;;;13.35;6.97;;;26.00;97.70;;;;;;5012259;28;20041;-73
2021/06/21 10:21:22;;;;;;;11.93;7.40;;;26.00;97.80;;;;;;5029297;28;20040;-73
2021/06/21 10:23:48;;;;;;;8.75;7.25;;;26.00;97.30;;;;;;5030668;28;20622;-75
2021/06/21 10:26:14;;;;;;;12.85;7.78;;;25.80;97.20;;;;;;5029571;28;20030;-73
2021/06/21 10:28:40;;;;;;;10.20;7.55;;;25.70;97.60;;;;;;5028819;28;20049;-73
2021/06/21 10:31:06;;;;;;;8.45;7.10;;;25.70;97.50;;;;;;5011974;28;20102;-73
2021/06/21 10:33:33;;;;;;;9.52;7.97;;;25.60;97.50;;;;;;5011925;28;20368;-73
2021/06/21 10:36:06;;;;;;;9.63;8.07;;;25.50;97.60;;;;;;5030843;28;20083;-75
2021/06/21 10:38:32;;;;;;;9.70;7.50;;;25.50;97.70;;;;;;5029755;28;20116;-74
2021/06/21 10:41:02;;;;;;;13.52;9.40;;;25.40;97.70;;;;;;5029015;28;20038;-74
2021/06/21 10:43:43;;;;;;;14.43;8.50;;;25.20;97.90;;;;;;5028769;28;20046;-74
2021/06/21 10:46:18;;;;;;;13.80;8.85;;;25.00;98.10;;;;;;5028746;28;20048;-73
2021/06/21 10:51:35;;;;;;;109.95;44.35;;;24.80;98.50;;;;;;5028712;28;20064;-79
2021/06/21 10:54:07;;;;;;;55.55;22.30;;;25.00;98.50;;;;;;5013526;28;20045;-80
2021/06/21 10:56:53;;;;;;;21.08;11.35;;;24.80;98.80;;;;;;5030263;28;20036;-80
2021/06/21 10:59:20;;;;;;;27.98;14.02;;;24.30;99.90;;;;;;5011596;28;20409;-85
2021/06/21 11:01:50;;;;;;;20.95;12.50;;;24.10;99.90;;;;;;5011453;28;20437;-83
2021/06/21 11:04:31;;;;;;;29.65;16.27;;;24.20;99.90;;;;;;5030313;28;20034;-80
2021/06/21 11:07:16;;;;;;;22.70;13.23;;;24.10;99.90;;;;;;5015260;28;20037;-79
2021/06/21 11:09:45;;;;;;;18.48;10.98;;;24.20;99.90;;;;;;5032582;28;20026;-78
2021/06/21 11:12:35;;;;;;;19.40;12.70;;;24.40;99.90;;;;;;5032622;28;20067;-75
2021/06/21 11:15:04;;;;;;;19.25;12.00;;;24.50;99.90;;;;;;5023897;28;20068;-77
2021/06/21 11:17:31;;;;;;;22.00;12.38;;;24.60;99.90;;;;;;5032565;28;20124;-80
2021/06/21 11:19:57;;;;;;;;;;;24.70;99.90;;;;;;5015572;28;20357;-79
2021/06/21 11:22:41;;;;;;;35.97;24.17;;;24.80;99.90;;;;;;5032373;28;19935;-82
2021/06/21 11:25:37;;;;;;;20.05;13.32;;;24.90;99.90;;;;;;5032603;28;20030;-82
2021/06/21 11:28:04;;;;;;;22.10;13.63;;;25.10;99.90;;;;;;5032377;28;20050;-82
2021/06/21 11:30:41;;;;;;;15.95;12.57;;;25.30;99.90;;;;;;5032326;28;20069;-83
2021/06/21 11:33:13;;;;;;;23.25;14.00;;;25.40;99.90;;;;;;5032308;28;20514;-83
2021/06/21 11:35:53;;;;;;;20.38;13.52;;;25.20;99.90;;;;;;5016240;28;20025;-81
2021/06/21 11:38:39;;;;;;;23.92;14.35;;;25.40;99.90;;;;;;5031756;28;20459;-81
2021/06/21 11:41:16;;;;;;;21.75;13.82;;;25.50;99.90;;;;;;5014767;28;20479;-82
2021/06/21 11:43:47;;;;;;;15.40;10.70;;;25.60;99.90;;;;;;5032025;28;20029;-81
2021/06/21 11:46:38;;;;;;;20.20;11.70;;;25.60;99.20;;;;;;5014133;28;20415;-82
2021/06/21 11:49:16;;;;;;;22.95;14.77;;;25.40;99.00;;;;;;5031497;28;20052;-83
2021/06/21 11:52:00;;;;;;;20.25;13.15;;;25.40;99.50;;;;;;5031913;28;20354;-80
2021/06/21 11:54:28;;;;;;;23.13;11.77;;;25.30;99.40;;;;;;5031726;28;20317;-82
2021/06/21 11:56:56;;;;;;;;;;;25.10;99.30;;;;;;5034209;28;20021;-82
2021/06/21 11:59:43;;;;;;;23.73;12.82;;;25.10;99.30;;;;;;5032006;28;19917;-80
2021/06/21 12:02:18;;;;;;;19.52;11.75;;;25.00;99.30;;;;;;5014124;28;20112;-80
2021/06/21 12:04:45;;;;;;;20.75;12.13;;;25.00;99.60;;;;;;5031585;28;20033;-79
2021/06/21 12:07:28;;;;;;;21.52;13.38;;;24.90;99.50;;;;;;5031395;28;20033;-80
2021/06/21 12:09:55;;;;;;;20.02;12.35;;;24.80;99.90;;;;;;5031589;28;20030;-79
2021/06/21 12:12:32;;;;;;;17.40;12.02;;;24.70;99.90;;;;;;5014037;28;20414;-80
2021/06/21 12:14:58;;;;;;;28.48;18.83;;;24.70;99.90;;;;;;5033318;28;20675;-81
2021/06/21 12:17:26;;;;;;;19.52;12.88;;;24.60;99.90;;;;;;5012786;28;20034;-79
2021/06/21 12:20:18;;;;;;;;;;;24.60;99.80;;;;;;5014351;28;20483;-81
2021/06/21 12:23:07;;;;;;;13.60;10.55;;;24.50;99.70;;;;;;5013499;28;19920;-79
2021/06/21 12:25:38;;;;;;;14.70;8.90;;;24.30;99.70;;;;;;5031585;28;20045;-80
2021/06/21 12:28:33;;;;;;;11.00;8.57;;;24.00;99.70;;;;;;5030792;28;20077;-76
2021/06/21 12:31:06;;;;;;;14.02;7.45;;;24.10;99.90;;;;;;5017810;28;20036;-80
2021/06/21 12:33:42;;;;;;;10.85;7.13;;;24.00;99.80;;;;;;5013569;28;20120;-80
2021/06/21 12:36:18;;;;;;;13.50;6.90;;;23.90;99.50;;;;;;5031132;28;20036;-78
2021/06/21 12:38:54;;;;;;;10.38;7.35;;;23.80;99.70;;;;;;5033328;28;20013;-84
2021/06/21 12:41:21;;;;;;;10.63;7.40;;;23.70;99.90;;;;;;5031468;28;20038;-82
2021/06/21 12:43:54;;;;;;;11.73;6.85;;;23.90;99.90;;;;;;5030995;28;20038;-78
2021/06/21 12:46:22;;;;;;;10.57;7.22;;;24.10;99.90;;;;;;5013389;28;20045;-83
2021/06/21 12:48:47;;;;;;;7.50;6.03;;;24.30;99.90;;;;;;5015567;28;20033;-83
2021/06/21 12:51:14;;;;;;;7.40;6.03;;;24.40;99.90;;;;;;5030892;28;20095;-83
2021/06/21 12:53:51;;;;;;;10.85;6.05;;;24.50;99.70;;;;;;5032503;28;20053;-81
2021/06/21 12:56:26;;;;;;;5.72;4.55;;;24.50;99.30;;;;;;5030449;28;20038;-80
2021/06/21 12:58:53;;;;;;;7.88;4.90;;;24.40;99.10;;;;;;5030965;28;20043;-81